createdAt,value
2017-04-26T00:00:46.740Z,1004.48
2017-04-26T00:01:46.757Z,1004.4
2017-04-26T00:02:46.774Z,1004.43
2017-04-26T00:03:46.793Z,1004.47
2017-04-26T00:04:46.809Z,1004.51
2017-04-26T00:06:46.848Z,1004.52
2017-04-26T00:07:46.863Z,1004.52
2017-04-26T00:08:46.879Z,1004.54
2017-04-26T00:09:46.897Z,1004.55
2017-04-26T00:10:46.915Z,1004.52
2017-04-26T00:11:46.933Z,1004.46
2017-04-26T00:12:46.951Z,1004.44
2017-04-26T00:13:46.969Z,1004.43
2017-04-26T00:14:46.986Z,1004.42
2017-04-26T00:15:47.003Z,1004.44
2017-04-26T00:16:47.022Z,1004.42
2017-04-26T00:17:47.038Z,1004.43
2017-04-26T00:18:47.057Z,1004.39
2017-04-26T00:19:47.073Z,1004.4
2017-04-26T00:20:47.090Z,1004.37
2017-04-26T00:22:47.126Z,1004.38
2017-04-26T00:23:47.144Z,1004.37
2017-04-26T00:24:47.161Z,1004.37
2017-04-26T00:25:47.178Z,1004.38
2017-04-26T00:26:47.194Z,1004.4
2017-04-26T00:27:47.212Z,1004.34
2017-04-26T00:28:47.230Z,1004.36
2017-04-26T00:29:47.250Z,1004.35
2017-04-26T00:30:47.266Z,1004.37
2017-04-26T00:31:47.284Z,1004.38
2017-04-26T00:32:47.304Z,1004.38
2017-04-26T00:33:47.319Z,1004.37
2017-04-26T00:34:47.335Z,1004.39
2017-04-26T00:35:47.359Z,1004.4
2017-04-26T00:36:47.370Z,1004.41
2017-04-26T00:38:47.405Z,1004.44
2017-04-26T00:39:47.422Z,1004.4
2017-04-26T00:40:47.440Z,1004.43
2017-04-26T00:41:47.457Z,1004.45
2017-04-26T00:42:47.475Z,1004.44
2017-04-26T00:43:47.492Z,1004.41
2017-04-26T00:44:47.516Z,1004.43
2017-04-26T00:45:47.526Z,1004.4
2017-04-26T00:46:47.543Z,1004.36
2017-04-26T00:47:47.561Z,1004.39
2017-04-26T00:48:47.578Z,1004.39
2017-04-26T00:49:47.595Z,1004.37
2017-04-26T00:50:47.613Z,1004.46
2017-04-26T00:51:47.630Z,1004.4
2017-04-26T00:52:47.647Z,1004.36
2017-04-26T00:54:47.682Z,1004.35
2017-04-26T00:55:47.699Z,1004.39
2017-04-26T00:56:47.716Z,1004.44
2017-04-26T00:57:47.733Z,1004.45
2017-04-26T00:58:47.752Z,1004.46
2017-04-26T00:59:47.767Z,1004.44
2017-04-26T01:00:47.785Z,1004.43
2017-04-26T01:01:47.802Z,1004.44
2017-04-26T01:02:47.820Z,1004.48
2017-04-26T01:03:47.836Z,1004.49
2017-04-26T01:04:47.853Z,1004.55
2017-04-26T01:05:47.871Z,1004.57
2017-04-26T01:06:47.889Z,1004.6
2017-04-26T01:07:47.906Z,1004.59
2017-04-26T01:09:47.941Z,1004.57
2017-04-26T01:10:47.957Z,1004.53
2017-04-26T01:11:47.975Z,1004.52
2017-04-26T01:12:47.993Z,1004.56
2017-04-26T01:13:48.009Z,1004.53
2017-04-26T01:14:48.026Z,1004.53
2017-04-26T01:15:48.043Z,1004.47
2017-04-26T01:16:48.060Z,1004.44
2017-04-26T01:17:48.077Z,1004.41
2017-04-26T01:18:48.095Z,1004.38
2017-04-26T01:19:48.112Z,1004.34
2017-04-26T01:20:48.132Z,1004.35
2017-04-26T01:21:48.146Z,1004.33
2017-04-26T01:22:48.163Z,1004.33
2017-04-26T01:23:48.180Z,1004.36
2017-04-26T01:24:48.198Z,1004.37
2017-04-26T01:25:48.214Z,1004.41
2017-04-26T01:26:48.231Z,1004.41
2017-04-26T01:27:48.249Z,1004.42
2017-04-26T01:28:48.266Z,1004.41
2017-04-26T01:29:48.282Z,1004.4
2017-04-26T01:30:48.299Z,1004.4
2017-04-26T01:31:48.317Z,1004.4
2017-04-26T01:32:48.334Z,1004.4
2017-04-26T01:33:48.351Z,1004.45
2017-04-26T01:34:48.368Z,1004.49
2017-04-26T01:35:48.385Z,1004.52
2017-04-26T01:36:48.401Z,1004.57
2017-04-26T01:37:48.419Z,1004.63
2017-04-26T01:38:48.437Z,1004.63
2017-04-26T01:39:48.453Z,1004.65
2017-04-26T01:41:48.487Z,1004.6
2017-04-26T01:42:48.505Z,1004.64
2017-04-26T01:43:48.521Z,1004.63
2017-04-26T01:44:48.538Z,1004.61
2017-04-26T01:45:48.556Z,1004.53
2017-04-26T01:46:48.573Z,1004.56
2017-04-26T01:47:48.589Z,1004.5
2017-04-26T01:48:48.607Z,1004.37
2017-04-26T01:49:48.623Z,1004.38
2017-04-26T01:50:48.639Z,1004.32
2017-04-26T01:51:48.657Z,1004.32
2017-04-26T01:52:48.674Z,1004.4
2017-04-26T01:53:48.691Z,1004.49
2017-04-26T01:54:48.708Z,1004.54
2017-04-26T01:55:48.725Z,1004.6
2017-04-26T01:57:48.759Z,1004.73
2017-04-26T01:58:48.776Z,1004.73
2017-04-26T01:59:48.793Z,1004.76
2017-04-26T02:00:48.809Z,1004.71
2017-04-26T02:01:48.826Z,1004.7
2017-04-26T02:02:48.843Z,1004.72
2017-04-26T02:03:48.860Z,1004.68
2017-04-26T02:04:48.877Z,1004.66
2017-04-26T02:05:48.893Z,1004.67
2017-04-26T02:06:48.910Z,1004.69
2017-04-26T02:07:48.928Z,1004.71
2017-04-26T02:08:48.945Z,1004.73
2017-04-26T02:09:48.960Z,1004.74
2017-04-26T02:10:48.977Z,1004.79
2017-04-26T02:11:48.994Z,1004.82
2017-04-26T02:13:49.028Z,1004.85
2017-04-26T02:14:49.045Z,1004.85
2017-04-26T02:15:49.061Z,1004.86
2017-04-26T02:16:49.078Z,1004.82
2017-04-26T02:17:49.101Z,1004.76
2017-04-26T02:18:49.112Z,1004.74
2017-04-26T02:19:49.130Z,1004.73
2017-04-26T02:20:49.145Z,1004.69
2017-04-26T02:21:49.161Z,1004.67
2017-04-26T02:22:49.178Z,1004.66
2017-04-26T02:23:49.195Z,1004.67
2017-04-26T02:24:49.212Z,1004.64
2017-04-26T02:25:49.229Z,1004.73
2017-04-26T02:26:49.246Z,1004.71
2017-04-26T02:27:49.262Z,1004.72
2017-04-26T02:29:49.295Z,1004.82
2017-04-26T02:30:49.312Z,1004.87
2017-04-26T02:31:49.328Z,1004.94
2017-04-26T02:32:49.345Z,1005
2017-04-26T02:33:49.362Z,1004.99
2017-04-26T02:34:49.378Z,1004.92
2017-04-26T02:35:49.395Z,1004.89
2017-04-26T02:36:49.411Z,1004.88
2017-04-26T02:37:49.429Z,1004.87
2017-04-26T02:38:49.444Z,1004.91
2017-04-26T02:39:49.461Z,1004.92
2017-04-26T02:40:49.479Z,1004.96
2017-04-26T02:41:49.495Z,1004.97
2017-04-26T02:42:49.512Z,1004.95
2017-04-26T02:44:49.546Z,1005
2017-04-26T02:45:49.562Z,1004.98
2017-04-26T02:46:49.579Z,1005.01
2017-04-26T02:47:49.596Z,1004.96
2017-04-26T02:48:49.613Z,1004.91
2017-04-26T02:49:49.629Z,1004.85
2017-04-26T02:50:49.646Z,1004.89
2017-04-26T02:51:49.663Z,1004.84
2017-04-26T02:52:49.678Z,1004.84
2017-04-26T02:53:49.695Z,1004.82
2017-04-26T02:54:49.713Z,1004.82
2017-04-26T02:55:49.729Z,1004.79
2017-04-26T02:56:49.745Z,1004.75
2017-04-26T02:57:49.763Z,1004.74
2017-04-26T02:58:49.779Z,1004.74
2017-04-26T02:59:49.796Z,1004.7
2017-04-26T03:00:49.813Z,1004.67
2017-04-26T03:01:49.829Z,1004.66
2017-04-26T03:02:49.847Z,1004.65
2017-04-26T03:03:49.862Z,1004.64
2017-04-26T03:04:49.879Z,1004.66
2017-04-26T03:05:49.896Z,1004.65
2017-04-26T03:06:49.916Z,1004.66
2017-04-26T03:07:49.929Z,1004.67
2017-04-26T03:08:49.946Z,1004.68
2017-04-26T03:09:49.963Z,1004.63
2017-04-26T03:10:49.980Z,1004.59
2017-04-26T03:11:49.996Z,1004.6
2017-04-26T03:12:50.013Z,1004.58
2017-04-26T03:13:50.029Z,1004.65
2017-04-26T03:14:50.047Z,1004.69
2017-04-26T03:16:50.080Z,1004.72
2017-04-26T03:17:50.097Z,1004.71
2017-04-26T03:18:50.112Z,1004.79
2017-04-26T03:19:50.130Z,1004.73
2017-04-26T03:20:50.146Z,1004.71
2017-04-26T03:21:50.164Z,1004.74
2017-04-26T03:22:50.179Z,1004.73
2017-04-26T03:23:50.196Z,1004.73
2017-04-26T03:24:50.213Z,1004.74
2017-04-26T03:25:50.229Z,1004.76
2017-04-26T03:26:50.246Z,1004.78
2017-04-26T03:27:50.263Z,1004.73
2017-04-26T03:28:50.281Z,1004.76
2017-04-26T03:29:50.296Z,1004.8
2017-04-26T03:30:50.313Z,1004.8
2017-04-26T03:32:50.347Z,1004.78
2017-04-26T03:33:50.363Z,1004.84
2017-04-26T03:34:50.379Z,1004.85
2017-04-26T03:35:50.396Z,1004.83
2017-04-26T03:36:50.412Z,1004.84
2017-04-26T03:37:50.428Z,1004.88
2017-04-26T03:38:50.445Z,1004.93
2017-04-26T03:39:50.462Z,1004.89
2017-04-26T03:40:50.478Z,1004.93
2017-04-26T03:41:50.494Z,1004.95
2017-04-26T03:42:50.511Z,1004.98
2017-04-26T03:43:50.528Z,1004.99
2017-04-26T03:44:50.544Z,1004.96
2017-04-26T03:45:50.561Z,1004.98
2017-04-26T03:46:50.578Z,1004.97
2017-04-26T03:48:50.610Z,1004.99
2017-04-26T03:49:50.627Z,1004.98
2017-04-26T03:50:50.644Z,1004.95
2017-04-26T03:51:50.659Z,1004.96
2017-04-26T03:52:50.676Z,1004.95
2017-04-26T03:53:50.692Z,1004.96
2017-04-26T03:54:50.709Z,1004.95
2017-04-26T03:55:50.726Z,1005
2017-04-26T03:56:50.742Z,1005.03
2017-04-26T03:57:50.758Z,1005.03
2017-04-26T03:58:50.774Z,1005.06
2017-04-26T03:59:50.793Z,1005.04
2017-04-26T04:00:50.808Z,1005.09
2017-04-26T04:01:50.824Z,1005.03
2017-04-26T04:02:50.839Z,1005.05
2017-04-26T04:04:50.873Z,1005.08
2017-04-26T04:05:50.891Z,1005.08
2017-04-26T04:06:50.906Z,1005.1
2017-04-26T04:07:50.922Z,1005.12
2017-04-26T04:08:50.938Z,1005.1
2017-04-26T04:09:50.954Z,1005.11
2017-04-26T04:10:50.971Z,1005.1
2017-04-26T04:11:50.988Z,1005.11
2017-04-26T04:12:51.004Z,1005.15
2017-04-26T04:13:51.026Z,1005.17
2017-04-26T04:14:51.037Z,1005.15
2017-04-26T04:15:51.053Z,1005.11
2017-04-26T04:16:51.070Z,1005.13
2017-04-26T04:17:51.087Z,1005.17
2017-04-26T04:19:51.120Z,1005.21
2017-04-26T04:20:51.136Z,1005.2
2017-04-26T04:21:51.152Z,1005.18
2017-04-26T04:22:51.168Z,1005.21
2017-04-26T04:23:51.185Z,1005.23
2017-04-26T04:24:51.201Z,1005.19
2017-04-26T04:25:51.218Z,1005.23
2017-04-26T04:26:51.234Z,1005.25
2017-04-26T04:27:51.251Z,1005.25
2017-04-26T04:28:51.267Z,1005.26
2017-04-26T04:29:51.283Z,1005.28
2017-04-26T04:30:51.300Z,1005.26
2017-04-26T04:31:51.316Z,1005.22
2017-04-26T04:32:51.332Z,1005.21
2017-04-26T04:33:51.349Z,1005.2
2017-04-26T04:34:51.366Z,1005.19
2017-04-26T04:35:51.382Z,1005.22
2017-04-26T04:36:51.399Z,1005.22
2017-04-26T04:37:51.416Z,1005.27
2017-04-26T04:38:51.431Z,1005.31
2017-04-26T04:39:51.448Z,1005.3
2017-04-26T04:40:51.465Z,1005.32
2017-04-26T04:41:51.481Z,1005.37
2017-04-26T04:42:51.497Z,1005.38
2017-04-26T04:43:51.514Z,1005.42
2017-04-26T04:44:51.530Z,1005.42
2017-04-26T04:45:51.547Z,1005.43
2017-04-26T04:46:51.563Z,1005.4
2017-04-26T04:47:51.586Z,1005.44
2017-04-26T04:48:51.598Z,1005.4
2017-04-26T04:49:51.613Z,1005.45
2017-04-26T04:51:51.647Z,1005.5
2017-04-26T04:52:51.664Z,1005.5
2017-04-26T04:53:51.680Z,1005.59
2017-04-26T04:54:51.697Z,1005.6
2017-04-26T04:55:51.716Z,1005.6
2017-04-26T04:56:51.733Z,1005.66
2017-04-26T04:57:51.749Z,1005.54
2017-04-26T04:58:51.767Z,1005.57
2017-04-26T04:59:51.784Z,1005.56
2017-04-26T05:00:51.802Z,1005.56
2017-04-26T05:01:51.820Z,1005.54
2017-04-26T05:02:51.839Z,1005.59
2017-04-26T05:03:51.861Z,1005.57
2017-04-26T05:04:51.875Z,1005.54
2017-04-26T05:05:51.893Z,1005.62
2017-04-26T05:07:51.930Z,1005.69
2017-04-26T05:08:51.949Z,1005.72
2017-04-26T05:09:51.968Z,1005.72
2017-04-26T05:10:51.987Z,1005.7
2017-04-26T05:11:52.006Z,1005.76
2017-04-26T05:12:52.027Z,1005.78
2017-04-26T05:13:52.047Z,1005.85
2017-04-26T05:14:52.068Z,1005.83
2017-04-26T05:15:52.087Z,1005.89
2017-04-26T05:16:52.109Z,1005.87
2017-04-26T05:17:52.131Z,1005.78
2017-04-26T05:18:52.151Z,1005.83
2017-04-26T05:19:52.171Z,1005.78
2017-04-26T05:20:52.194Z,1005.81
2017-04-26T05:21:52.215Z,1005.78
2017-04-26T05:23:52.259Z,1005.79
2017-04-26T05:24:52.280Z,1005.76
2017-04-26T05:25:52.301Z,1005.79
2017-04-26T05:26:52.321Z,1005.77
2017-04-26T05:27:52.343Z,1005.82
2017-04-26T05:28:52.365Z,1005.88
2017-04-26T05:29:52.387Z,1005.87
2017-04-26T05:30:52.406Z,1005.87
2017-04-26T05:31:52.428Z,1005.9
2017-04-26T05:32:52.450Z,1005.93
2017-04-26T05:33:52.470Z,1005.94
2017-04-26T05:34:52.492Z,1005.95
2017-04-26T05:35:52.514Z,1005.92
2017-04-26T05:36:52.536Z,1005.93
2017-04-26T05:37:52.555Z,1005.97
2017-04-26T05:39:52.599Z,1005.98
2017-04-26T05:40:52.620Z,1005.96
2017-04-26T05:41:52.640Z,1005.97
2017-04-26T05:42:52.663Z,1005.96
2017-04-26T05:43:52.683Z,1006
2017-04-26T05:44:52.705Z,1005.97
2017-04-26T05:45:52.726Z,1005.97
2017-04-26T05:46:52.747Z,1006.01
2017-04-26T05:47:52.769Z,1006.01
2017-04-26T05:48:52.790Z,1005.96
2017-04-26T05:49:52.812Z,1006
2017-04-26T05:50:52.833Z,1006.04
2017-04-26T05:51:52.855Z,1006.06
2017-04-26T05:52:52.878Z,1006.11
2017-04-26T05:54:52.922Z,1006.28
2017-04-26T05:55:52.942Z,1006.44
2017-04-26T05:56:52.964Z,1006.45
2017-04-26T05:57:52.987Z,1006.48
2017-04-26T05:58:53.009Z,1006.41
2017-04-26T05:59:53.031Z,1006.43
2017-04-26T06:00:53.054Z,1006.49
2017-04-26T06:01:53.078Z,1006.51
2017-04-26T06:02:53.099Z,1006.51
2017-04-26T06:03:53.123Z,1006.63
2017-04-26T06:04:53.147Z,1006.62
2017-04-26T06:05:53.171Z,1006.63
2017-04-26T06:06:53.195Z,1006.66
2017-04-26T06:07:53.219Z,1006.78
2017-04-26T06:08:53.241Z,1007.05
2017-04-26T06:09:53.266Z,1007.14
2017-04-26T06:10:53.290Z,1007.24
2017-04-26T06:11:53.315Z,1007.28
2017-04-26T06:12:53.340Z,1007.35
2017-04-26T06:13:53.365Z,1007.34
2017-04-26T06:14:53.391Z,1007.24
2017-04-26T06:15:53.416Z,1007.35
2017-04-26T06:16:53.593Z,1007.3
2017-04-26T06:17:53.468Z,1007.33
2017-04-26T06:18:53.495Z,1007.56
2017-04-26T06:19:53.522Z,1007.79
2017-04-26T06:20:53.550Z,1007.94
2017-04-26T06:21:53.577Z,1007.97
2017-04-26T06:22:53.605Z,1007.87
2017-04-26T06:23:53.632Z,1007.64
2017-04-26T06:24:53.659Z,1007.92
2017-04-26T06:26:53.717Z,1008.12
2017-04-26T06:27:53.746Z,1008.18
2017-04-26T06:28:53.774Z,1008.23
2017-04-26T06:29:53.806Z,1008.21
2017-04-26T06:30:53.833Z,1008.27
2017-04-26T06:31:53.863Z,1008.37
2017-04-26T06:32:53.893Z,1008.33
2017-04-26T06:33:53.923Z,1008.29
2017-04-26T06:34:53.954Z,1008.31
2017-04-26T06:35:53.984Z,1008.27
2017-04-26T06:36:54.015Z,1008.26
2017-04-26T06:37:54.046Z,1008.25
2017-04-26T06:38:54.077Z,1008.24
2017-04-26T06:39:54.108Z,1008.22
2017-04-26T06:40:54.141Z,1008.19
2017-04-26T06:42:54.204Z,1008.05
2017-04-26T06:43:54.236Z,1008.13
2017-04-26T06:44:54.269Z,1008.14
2017-04-26T06:45:54.301Z,1008.07
2017-04-26T06:46:54.333Z,1008.08
2017-04-26T06:47:54.365Z,1008.01
2017-04-26T06:48:54.399Z,1007.98
2017-04-26T06:49:54.432Z,1007.94
2017-04-26T06:50:54.464Z,1007.89
2017-04-26T06:51:54.497Z,1007.91
2017-04-26T06:52:54.532Z,1007.89
2017-04-26T06:53:54.564Z,1007.88
2017-04-26T06:54:54.596Z,1007.83
2017-04-26T06:55:54.631Z,1007.8
2017-04-26T06:56:54.664Z,1007.8
2017-04-26T06:58:54.740Z,1007.78
2017-04-26T06:59:54.765Z,1007.79
2017-04-26T07:00:54.799Z,1007.81
2017-04-26T07:01:54.832Z,1007.87
2017-04-26T07:02:54.866Z,1007.84
2017-04-26T07:03:54.901Z,1007.87
2017-04-26T07:04:54.935Z,1007.86
2017-04-26T07:05:54.968Z,1007.84
2017-04-26T07:06:55.002Z,1007.85
2017-04-26T07:07:55.036Z,1007.83
2017-04-26T07:08:55.070Z,1007.81
2017-04-26T07:09:55.105Z,1007.78
2017-04-26T07:10:55.140Z,1007.75
2017-04-26T07:11:55.173Z,1007.75
2017-04-26T07:12:55.207Z,1007.72
2017-04-26T07:14:55.277Z,1007.68
2017-04-26T07:15:55.310Z,1007.69
2017-04-26T07:16:55.343Z,1007.69
2017-04-26T07:17:55.379Z,1007.64
2017-04-26T07:18:55.413Z,1007.62
2017-04-26T07:19:55.448Z,1007.64
2017-04-26T07:20:55.482Z,1007.63
2017-04-26T07:21:55.517Z,1007.63
2017-04-26T07:22:55.552Z,1007.62
2017-04-26T07:23:55.586Z,1007.65
2017-04-26T07:24:55.621Z,1007.69
2017-04-26T07:25:55.656Z,1007.72
2017-04-26T07:26:55.690Z,1007.73
2017-04-26T07:27:55.726Z,1007.73
2017-04-26T07:29:55.798Z,1007.69
2017-04-26T07:30:55.830Z,1007.72
2017-04-26T07:31:55.865Z,1007.65
2017-04-26T07:32:55.900Z,1007.58
2017-04-26T07:33:55.935Z,1007.6
2017-04-26T07:34:55.969Z,1007.57
2017-04-26T07:35:56.008Z,1007.59
2017-04-26T07:36:56.040Z,1007.57
2017-04-26T07:37:56.074Z,1007.62
2017-04-26T07:38:56.109Z,1007.6
2017-04-26T07:39:56.145Z,1007.57
2017-04-26T07:40:56.180Z,1007.54
2017-04-26T07:41:56.214Z,1007.51
2017-04-26T07:42:56.250Z,1007.48
2017-04-26T07:43:56.284Z,1007.47
2017-04-26T07:44:56.319Z,1007.53
2017-04-26T07:45:56.357Z,1007.5
2017-04-26T07:46:56.388Z,1007.5
2017-04-26T07:47:56.424Z,1007.48
2017-04-26T07:48:56.457Z,1007.45
2017-04-26T07:49:56.493Z,1007.44
2017-04-26T07:50:56.529Z,1007.44
2017-04-26T07:51:56.564Z,1007.24
2017-04-26T07:52:56.597Z,1007.44
2017-04-26T07:53:56.633Z,1007.41
2017-04-26T07:54:56.668Z,1007.38
2017-04-26T07:55:56.703Z,1007.39
2017-04-26T07:56:56.737Z,1007.33
2017-04-26T07:57:56.775Z,1007
2017-04-26T07:58:56.808Z,1007.22
2017-04-26T07:59:56.842Z,1007.23
2017-04-26T08:01:56.911Z,1007.28
2017-04-26T08:02:56.946Z,1007.24
2017-04-26T08:03:56.980Z,1007.26
2017-04-26T08:04:57.015Z,1007.28
2017-04-26T08:05:57.049Z,1007.29
2017-04-26T08:06:57.084Z,1007.29
2017-04-26T08:07:57.118Z,1007.26
2017-04-26T08:08:57.153Z,1007.27
2017-04-26T08:09:57.192Z,1007.26
2017-04-26T08:10:57.223Z,1007.3
2017-04-26T08:11:57.260Z,1007.28
2017-04-26T08:12:57.290Z,1006.9
2017-04-26T08:13:57.325Z,1006.91
2017-04-26T08:14:57.358Z,1006.9
2017-04-26T08:15:57.416Z,1007.02
2017-04-26T08:17:57.461Z,1007.38
2017-04-26T08:18:57.494Z,1007.27
2017-04-26T08:19:57.528Z,1006.93
2017-04-26T08:20:57.562Z,1007.04
2017-04-26T08:21:57.593Z,1006.96
2017-04-26T08:22:57.626Z,1006.91
2017-04-26T08:23:57.660Z,1007
2017-04-26T08:24:57.692Z,1006.96
2017-04-26T08:25:57.723Z,1006.98
2017-04-26T08:26:57.756Z,1007.45
2017-04-26T08:27:57.788Z,1007.41
2017-04-26T08:28:57.819Z,1007.08
2017-04-26T08:29:57.900Z,1006.97
2017-04-26T08:30:57.882Z,1006.98
2017-04-26T08:31:57.913Z,1006.94
2017-04-26T08:33:57.974Z,1006.89
2017-04-26T08:34:58.004Z,1006.89
2017-04-26T08:35:58.037Z,1006.88
2017-04-26T08:36:58.064Z,1006.86
2017-04-26T08:37:58.094Z,1006.98
2017-04-26T08:38:58.124Z,1006.86
2017-04-26T08:39:58.154Z,1006.82
2017-04-26T08:40:58.182Z,1007.03
2017-04-26T08:41:58.211Z,1006.91
2017-04-26T08:42:58.241Z,1006.81
2017-04-26T08:43:58.268Z,1006.8
2017-04-26T08:44:58.298Z,1006.78
2017-04-26T08:45:58.330Z,1006.8
2017-04-26T08:46:58.355Z,1006.76
2017-04-26T08:47:58.383Z,1006.76
2017-04-26T08:49:58.439Z,1006.77
2017-04-26T08:50:58.468Z,1006.76
2017-04-26T08:51:58.494Z,1006.74
2017-04-26T08:52:58.522Z,1006.8
2017-04-26T08:53:58.550Z,1006.69
2017-04-26T08:54:58.577Z,1006.69
2017-04-26T08:55:58.605Z,1006.64
2017-04-26T08:56:58.632Z,1006.63
2017-04-26T08:57:58.659Z,1006.61
2017-04-26T08:58:58.686Z,1006.6
2017-04-26T08:59:58.713Z,1006.6
2017-04-26T09:00:58.743Z,1006.58
2017-04-26T09:01:58.770Z,1006.61
2017-04-26T09:02:58.794Z,1006.67
2017-04-26T09:04:58.848Z,1006.64
2017-04-26T09:05:58.873Z,1006.61
2017-04-26T09:06:58.901Z,1006.63
2017-04-26T09:07:58.927Z,1006.68
2017-04-26T09:08:58.953Z,1006.67
2017-04-26T09:09:58.979Z,1006.69
2017-04-26T09:11:59.032Z,1006.66
2017-04-26T09:12:59.058Z,1006.66
2017-04-26T09:13:59.085Z,1006.58
2017-04-26T09:14:59.112Z,1006.63
2017-04-26T09:15:59.139Z,1006.66
2017-04-26T09:16:59.165Z,1006.66
2017-04-26T09:17:59.192Z,1006.63
2017-04-26T09:18:59.219Z,1006.66
2017-04-26T09:19:59.246Z,1006.7
2017-04-26T09:20:59.273Z,1006.64
2017-04-26T09:21:59.301Z,1006.63
2017-04-26T09:22:59.329Z,1006.56
2017-04-26T09:23:59.356Z,1006.6
2017-04-26T09:24:59.384Z,1006.6
2017-04-26T09:25:59.412Z,1006.59
2017-04-26T09:26:59.440Z,1006.55
2017-04-26T09:27:59.468Z,1006.52
2017-04-26T09:28:59.496Z,1006.51
2017-04-26T09:29:59.524Z,1006.5
2017-04-26T09:30:59.553Z,1006.54
2017-04-26T09:31:59.581Z,1006.54
2017-04-26T09:32:59.610Z,1006.52
2017-04-26T09:33:59.639Z,1006.49
2017-04-26T09:34:59.667Z,1006.45
2017-04-26T09:36:59.725Z,1006.47
2017-04-26T09:37:59.756Z,1006.48
2017-04-26T09:38:59.782Z,1006.5
2017-04-26T09:39:59.812Z,1006.5
2017-04-26T09:40:59.842Z,1006.47
2017-04-26T09:41:59.874Z,1006.53
2017-04-26T09:42:59.899Z,1006.54
2017-04-26T09:43:59.930Z,1006.57
2017-04-26T09:44:59.958Z,1006.59
2017-04-26T09:45:59.987Z,1006.55
2017-04-26T09:47:00.017Z,1006.55
2017-04-26T09:48:00.047Z,1006.57
2017-04-26T09:49:00.077Z,1006.6
2017-04-26T09:50:00.105Z,1006.58
2017-04-26T09:51:00.135Z,1006.61
2017-04-26T09:53:00.194Z,1006.61
2017-04-26T09:54:00.223Z,1006.57
2017-04-26T09:55:00.254Z,1006.56
2017-04-26T09:56:00.282Z,1006.6
2017-04-26T09:57:00.312Z,1006.63
2017-04-26T09:58:00.341Z,1006.59
2017-04-26T09:59:00.370Z,1006.6
2017-04-26T10:00:00.399Z,1006.67
2017-04-26T10:01:00.427Z,1006.56
2017-04-26T10:02:00.475Z,1006.57
2017-04-26T10:03:00.485Z,1006.59
2017-04-26T10:04:00.513Z,1006.61
2017-04-26T10:05:00.541Z,1006.6
2017-04-26T10:06:00.569Z,1006.56
2017-04-26T10:07:00.597Z,1006.58
2017-04-26T10:09:00.652Z,1006.59
2017-04-26T10:10:00.679Z,1006.6
2017-04-26T10:11:00.707Z,1006.61
2017-04-26T10:12:00.732Z,1006.58
2017-04-26T10:13:00.760Z,1006.65
2017-04-26T10:14:00.788Z,1006.63
2017-04-26T10:15:09.017Z,1006.62
2017-04-26T10:16:09.045Z,1006.67
2017-04-26T10:17:09.069Z,1006.6
2017-04-26T10:18:09.097Z,1006.63
2017-04-26T10:19:09.123Z,1006.62
2017-04-26T10:20:09.151Z,1006.63
2017-04-26T10:22:09.206Z,1006.58
2017-04-26T10:23:09.234Z,1006.64
2017-04-26T10:24:09.260Z,1006.64
2017-04-26T10:25:09.288Z,1006.64
2017-04-26T10:26:09.315Z,1006.6
2017-04-26T10:27:09.343Z,1006.64
2017-04-26T10:28:09.370Z,1006.61
2017-04-26T10:29:24.222Z,1006.61
2017-04-26T10:30:24.246Z,1006.62
2017-04-26T10:31:24.275Z,1006.66
2017-04-26T10:32:24.302Z,1006.59
2017-04-26T10:33:24.329Z,1006.57
2017-04-26T10:34:24.355Z,1006.58
2017-04-26T10:35:24.382Z,1006.55
2017-04-26T10:36:24.407Z,1006.56
2017-04-26T10:38:24.462Z,1006.56
2017-04-26T10:39:24.487Z,1006.57
2017-04-26T10:40:24.513Z,1006.52
2017-04-26T10:41:24.540Z,1006.49
2017-04-26T10:42:24.568Z,1006.52
2017-04-26T10:43:24.594Z,1006.53
2017-04-26T10:44:24.620Z,1006.51
2017-04-26T10:45:24.646Z,1006.51
2017-04-26T10:46:24.673Z,1006.53
2017-04-26T10:47:24.699Z,1006.54
2017-04-26T10:48:24.725Z,1006.53
2017-04-26T10:49:24.751Z,1006.48
2017-04-26T10:50:24.778Z,1006.45
2017-04-26T10:51:24.807Z,1006.48
2017-04-26T10:52:24.831Z,1006.51
2017-04-26T10:54:24.883Z,1006.46
2017-04-26T10:55:24.908Z,1006.5
2017-04-26T10:56:24.934Z,1006.46
2017-04-26T10:57:24.960Z,1006.52
2017-04-26T10:58:24.986Z,1006.47
2017-04-26T10:59:25.012Z,1006.55
2017-04-26T11:00:25.038Z,1006.53
2017-04-26T11:01:25.063Z,1006.5
2017-04-26T11:02:25.089Z,1006.57
2017-04-26T11:03:25.114Z,1006.61
2017-04-26T11:04:25.141Z,1006.57
2017-04-26T11:05:25.166Z,1006.57
2017-04-26T11:06:25.192Z,1006.57
2017-04-26T11:07:25.217Z,1006.57
2017-04-26T11:08:25.243Z,1006.56
2017-04-26T11:10:25.294Z,1006.57
2017-04-26T11:11:25.320Z,1006.59
2017-04-26T11:12:25.345Z,1006.61
2017-04-26T11:13:25.369Z,1006.58
2017-04-26T11:14:25.396Z,1006.57
2017-04-26T11:15:25.422Z,1006.6
2017-04-26T11:16:25.446Z,1006.54
2017-04-26T11:17:25.471Z,1006.52
2017-04-26T11:18:25.496Z,1006.53
2017-04-26T11:19:25.522Z,1006.57
2017-04-26T11:20:25.546Z,1006.54
2017-04-26T11:21:25.572Z,1006.56
2017-04-26T11:22:25.598Z,1006.57
2017-04-26T11:23:25.624Z,1006.56
2017-04-26T11:24:25.647Z,1006.59
2017-04-26T11:26:25.698Z,1006.59
2017-04-26T11:27:25.723Z,1006.55
2017-04-26T11:28:25.748Z,1006.52
2017-04-26T11:29:25.773Z,1006.49
2017-04-26T11:30:25.799Z,1006.49
2017-04-26T11:31:25.823Z,1006.52
2017-04-26T11:32:25.849Z,1006.5
2017-04-26T11:33:25.874Z,1006.49
2017-04-26T11:34:25.899Z,1006.54
2017-04-26T11:35:25.924Z,1006.53
2017-04-26T11:36:25.949Z,1006.49
2017-04-26T11:37:25.975Z,1006.49
2017-04-26T11:38:26.000Z,1006.52
2017-04-26T11:39:26.024Z,1006.48
2017-04-26T11:41:26.076Z,1006.53
2017-04-26T11:42:26.100Z,1006.56
2017-04-26T11:43:26.126Z,1006.6
2017-04-26T11:44:26.150Z,1006.6
2017-04-26T11:45:26.176Z,1006.6
2017-04-26T11:46:26.200Z,1006.63
2017-04-26T11:47:26.225Z,1006.68
2017-04-26T11:48:26.251Z,1006.7
2017-04-26T11:49:26.275Z,1006.69
2017-04-26T11:50:26.300Z,1006.69
2017-04-26T11:51:26.326Z,1006.7
2017-04-26T11:52:26.351Z,1006.73
2017-04-26T11:53:26.375Z,1006.73
2017-04-26T11:54:26.403Z,1006.73
2017-04-26T11:55:26.426Z,1006.7
2017-04-26T11:56:26.451Z,1006.79
2017-04-26T11:57:26.476Z,1006.75
2017-04-26T11:58:26.501Z,1006.75
2017-04-26T11:59:26.527Z,1006.77
2017-04-26T12:00:26.551Z,1006.81
2017-04-26T12:01:26.576Z,1006.82
2017-04-26T12:02:26.602Z,1006.8
2017-04-26T12:03:26.627Z,1006.86
2017-04-26T12:04:26.652Z,1006.83
2017-04-26T12:05:26.678Z,1006.91
2017-04-26T12:06:26.703Z,1006.87
2017-04-26T12:07:26.729Z,1006.9
2017-04-26T12:08:26.753Z,1006.91
2017-04-26T12:09:26.778Z,1006.87
2017-04-26T12:10:26.804Z,1006.89
2017-04-26T12:11:26.828Z,1006.86
2017-04-26T12:13:26.879Z,1006.88
2017-04-26T12:14:26.905Z,1006.88
2017-04-26T12:15:26.929Z,1006.85
2017-04-26T12:16:26.955Z,1006.84
2017-04-26T12:17:26.980Z,1006.81
2017-04-26T12:18:27.006Z,1006.79
2017-04-26T12:19:27.032Z,1006.83
2017-04-26T12:20:27.061Z,1006.8
2017-04-26T12:21:27.082Z,1006.8
2017-04-26T12:22:27.106Z,1006.8
2017-04-26T12:23:27.132Z,1006.77
2017-04-26T12:24:27.158Z,1006.81
2017-04-26T12:25:27.183Z,1006.81
2017-04-26T12:26:27.207Z,1006.77
2017-04-26T12:27:27.234Z,1006.75
2017-04-26T12:29:27.284Z,1006.77
2017-04-26T12:30:27.309Z,1006.8
2017-04-26T12:31:27.335Z,1006.72
2017-04-26T12:32:27.360Z,1006.69
2017-04-26T12:33:27.384Z,1006.7
2017-04-26T12:34:27.410Z,1006.7
2017-04-26T12:35:27.435Z,1006.68
2017-04-26T12:36:27.461Z,1006.68
2017-04-26T12:37:27.485Z,1006.6
2017-04-26T12:38:27.515Z,1006.6
2017-04-26T12:39:27.536Z,1006.58
2017-04-26T12:40:27.561Z,1006.55
2017-04-26T12:41:27.586Z,1006.59
2017-04-26T12:42:27.611Z,1006.56
2017-04-26T12:43:27.636Z,1006.53
2017-04-26T12:45:27.686Z,1006.55
2017-04-26T12:46:27.712Z,1006.54
2017-04-26T12:47:27.737Z,1006.56
2017-04-26T12:48:27.761Z,1006.59
2017-04-26T12:49:27.787Z,1006.61
2017-04-26T12:50:27.812Z,1006.56
2017-04-26T12:51:27.837Z,1006.59
2017-04-26T12:52:27.862Z,1006.6